Limon, CO

3:02 AM MDT on October 24, 2014 (GMT -0600)
Limon, CO | Change Station
CLOSE
Current Station
Personal Weather Station
Location: Limon, CO
Elevation: 5361 ft
Nearby Weather Stations

Elev 5361 ft 39.27 °N, 103.68 °W | Updated 5 minutes ago

Clear
Clear
46.6 °F
Feels Like 47 °F
N
0.0
Wind Variable Wind from NNW
Gusts 2.0 mph

Today
High -- | Low -- °F
--% Chance of Precip.
Yesterday
High -- | Low -- °F
Precip. -- in
7:13 AM 6:03 PM
New Moon, 0% visible
Pressure 30.03 in
Visibility 10.0 miles
Clouds Clear
Windchill 47 °F
Dew Point 35 °F
Humidity 64%
Rainfall 0.00 in
Snow Depth Not available.
UV 0 out of 12
Pollen 2.50 out of 12
Air Quality Not available.
Flu Activity Sporadic
METAR KLIC 240855Z AUTO 36007KT 10SM CLR 05/02 A3016 RMK AO2 SLP167 T00500017 50000

More Conditions Fewer Conditions

Pressure 30.03 in
Visibility 10.0 miles
Clouds Clear
Windchill 47 °F
Dew Point 35 °F
Humidity 64%
Rainfall 0.00 in
Snow Depth Not available.
UV 0 out of 12
Pollen 2.50 out of 12
Air Quality Not available.
Flu Activity Sporadic
METAR KLIC 240855Z AUTO 36007KT 10SM CLR 05/02 A3016 RMK AO2 SLP167 T00500017 50000

More Conditions Fewer Conditions

10-Day Weather Forecast

Almanac

Astronomy

Oct. 24, 2014 Rise Set
Actual Time 7:13 AM MDT 6:03 PM MDT
Civil Twilight 6:46 AM MDT 6:30 PM MDT
Nautical Twilight 6:15 AM MDT 7:01 PM MDT
Astronomical Twilight 5:44 AM MDT 7:33 PM MDT
Moon 7:55 AM MDT 6:45 PM MDT
Length of Visible Light 11h 44m
Length of Day
10h 49m
Tomorrow will be 2m 22s shorter.
New Moon, 0% of the Moon is Illuminated
Today
New Moon
Oct 30
First Quarter
Nov 6
Full
Nov 14
Last Quarter
Nov 22
New

Today's Extremes

State Highs State Lows

Community

WunderPhotos

Upload Photos

1,764,513 photos uploaded!

WunderBlogs® & News

Nearby

Snow Depth

Station Depth Elevation
Glen Cove 1 in 11460 ft
Echo Lake 0 in 10600 ft
Lake Eldora 0 in 9700 ft
Niwot 0 in 9910 ft
University Camp 0 in 10300 ft

Earthquake Activity

City Distance Mag. Time & Date
No recent earthquake activity has been reported nearby.
Minimum magnitude displayed is 2.5.

Coastal Water Temperatures

Place Temperature
No Stations Reporting

Nearby Weather Stations